sensor_id;sensor_type;location;lat;lon;timestamp;temperature;humidity
21712;DHT22;11017;53.552;9.910;2023-03-01T00:01:05;3.60;99.90
21712;DHT22;11017;53.552;9.910;2023-03-01T00:03:32;3.60;99.90
21712;DHT22;11017;53.552;9.910;2023-03-01T00:06:00;3.50;99.90
21712;DHT22;11017;53.552;9.910;2023-03-01T00:08:28;3.60;99.90
21712;DHT22;11017;53.552;9.910;2023-03-01T00:11:03;3.60;99.90
21712;DHT22;11017;53.552;9.910;2023-03-01T00:13:33;3.40;99.90
21712;DHT22;11017;53.552;9.910;2023-03-01T00:16:02;3.40;99.90
21712;DHT22;11017;53.552;9.910;2023-03-01T00:18:29;3.30;99.90
21712;DHT22;11017;53.552;9.910;2023-03-01T00:20:56;3.00;99.90
21712;DHT22;11017;53.552;9.910;2023-03-01T00:23:23;2.80;99.90
21712;DHT22;11017;53.552;9.910;2023-03-01T00:25:51;2.90;99.90
21712;DHT22;11017;53.552;9.910;2023-03-01T00:28:18;2.90;99.90
21712;DHT22;11017;53.552;9.910;2023-03-01T00:30:47;2.70;99.90
21712;DHT22;11017;53.552;9.910;2023-03-01T00:33:14;2.70;99.90
21712;DHT22;11017;53.552;9.910;2023-03-01T00:35:40;3.00;99.90
21712;DHT22;11017;53.552;9.910;2023-03-01T00:38:08;3.30;99.90
21712;DHT22;11017;53.552;9.910;2023-03-01T00:40:35;3.20;99.90
21712;DHT22;11017;53.552;9.910;2023-03-01T00:43:03;3.20;99.90
21712;DHT22;11017;53.552;9.910;2023-03-01T00:45:30;3.00;99.90
21712;DHT22;11017;53.552;9.910;2023-03-01T00:47:58;2.80;99.90
21712;DHT22;11017;53.552;9.910;2023-03-01T00:50:25;2.60;99.90
21712;DHT22;11017;53.552;9.910;2023-03-01T00:52:53;2.60;99.90
21712;DHT22;11017;53.552;9.910;2023-03-01T00:55:20;2.60;99.90
21712;DHT22;11017;53.552;9.910;2023-03-01T00:57:47;2.60;99.90
21712;DHT22;11017;53.552;9.910;2023-03-01T01:00:14;2.40;99.90
21712;DHT22;11017;53.552;9.910;2023-03-01T01:02:41;2.60;99.90
21712;DHT22;11017;53.552;9.910;2023-03-01T01:05:10;2.90;99.90
21712;DHT22;11017;53.552;9.910;2023-03-01T01:07:37;3.10;99.90
21712;DHT22;11017;53.552;9.910;2023-03-01T01:10:05;3.20;99.90
21712;DHT22;11017;53.552;9.910;2023-03-01T01:12:32;3.10;99.90
21712;DHT22;11017;53.552;9.910;2023-03-01T01:14:59;2.90;99.90
21712;DHT22;11017;53.552;9.910;2023-03-01T01:17:26;2.90;99.90
21712;DHT22;11017;53.552;9.910;2023-03-01T01:19:53;2.70;99.90
21712;DHT22;11017;53.552;9.910;2023-03-01T01:22:21;2.60;99.90
21712;DHT22;11017;53.552;9.910;2023-03-01T01:24:48;2.70;99.90
21712;DHT22;11017;53.552;9.910;2023-03-01T01:27:15;2.80;99.90
21712;DHT22;11017;53.552;9.910;2023-03-01T01:29:41;2.70;99.90
21712;DHT22;11017;53.552;9.910;2023-03-01T01:32:08;2.60;99.90
21712;DHT22;11017;53.552;9.910;2023-03-01T01:34:35;2.50;99.90
21712;DHT22;11017;53.552;9.910;2023-03-01T01:37:02;2.70;99.90
21712;DHT22;11017;53.552;9.910;2023-03-01T01:39:34;2.70;99.90
21712;DHT22;11017;53.552;9.910;2023-03-01T01:42:01;2.80;99.90
21712;DHT22;11017;53.552;9.910;2023-03-01T01:44:29;3.00;99.90
21712;DHT22;11017;53.552;9.910;2023-03-01T01:46:58;3.20;99.90
21712;DHT22;11017;53.552;9.910;2023-03-01T01:49:31;3.20;99.90
21712;DHT22;11017;53.552;9.910;2023-03-01T01:52:07;3.10;99.90
21712;DHT22;11017;53.552;9.910;2023-03-01T01:54:41;3.20;99.90
21712;DHT22;11017;53.552;9.910;2023-03-01T01:57:13;3.30;99.90
21712;DHT22;11017;53.552;9.910;2023-03-01T01:59:43;3.30;99.90
21712;DHT22;11017;53.552;9.910;2023-03-01T02:02:12;3.40;99.90
21712;DHT22;11017;53.552;9.910;2023-03-01T02:04:39;3.30;99.90
21712;DHT22;11017;53.552;9.910;2023-03-01T02:07:10;3.20;99.90
21712;DHT22;11017;53.552;9.910;2023-03-01T02:09:42;3.20;99.90
21712;DHT22;11017;53.552;9.910;2023-03-01T02:12:10;3.30;99.90
21712;DHT22;11017;53.552;9.910;2023-03-01T02:14:37;3.30;99.90
21712;DHT22;11017;53.552;9.910;2023-03-01T02:17:04;3.30;99.90
21712;DHT22;11017;53.552;9.910;2023-03-01T02:19:40;3.40;99.90
21712;DHT22;11017;53.552;9.910;2023-03-01T02:22:15;3.40;99.90
21712;DHT22;11017;53.552;9.910;2023-03-01T02:24:55;3.40;99.90
21712;DHT22;11017;53.552;9.910;2023-03-01T02:27:29;3.50;99.90
21712;DHT22;11017;53.552;9.910;2023-03-01T02:29:58;3.40;99.90
21712;DHT22;11017;53.552;9.910;2023-03-01T02:32:26;3.10;99.90
21712;DHT22;11017;53.552;9.910;2023-03-01T02:34:52;3.00;99.90
21712;DHT22;11017;53.552;9.910;2023-03-01T02:37:21;3.10;99.90
21712;DHT22;11017;53.552;9.910;2023-03-01T02:39:54;3.10;99.90
21712;DHT22;11017;53.552;9.910;2023-03-01T02:42:27;3.20;99.90
21712;DHT22;11017;53.552;9.910;2023-03-01T02:44:58;3.20;99.90
21712;DHT22;11017;53.552;9.910;2023-03-01T02:47:25;3.30;99.90
21712;DHT22;11017;53.552;9.910;2023-03-01T02:49:52;3.30;99.90
21712;DHT22;11017;53.552;9.910;2023-03-01T02:52:40;3.30;99.90
21712;DHT22;11017;53.552;9.910;2023-03-01T02:55:11;3.20;99.90
21712;DHT22;11017;53.552;9.910;2023-03-01T02:57:40;3.10;99.90
21712;DHT22;11017;53.552;9.910;2023-03-01T03:00:12;3.10;99.90
21712;DHT22;11017;53.552;9.910;2023-03-01T03:02:45;3.20;99.90
21712;DHT22;11017;53.552;9.910;2023-03-01T03:05:14;3.10;99.90
21712;DHT22;11017;53.552;9.910;2023-03-01T03:07:44;2.80;99.90
21712;DHT22;11017;53.552;9.910;2023-03-01T03:10:13;2.80;99.90
21712;DHT22;11017;53.552;9.910;2023-03-01T03:12:41;3.00;99.90
21712;DHT22;11017;53.552;9.910;2023-03-01T03:15:10;3.10;99.90
21712;DHT22;11017;53.552;9.910;2023-03-01T03:17:39;3.20;99.90
21712;DHT22;11017;53.552;9.910;2023-03-01T03:20:07;3.20;99.90
21712;DHT22;11017;53.552;9.910;2023-03-01T03:22:37;3.20;99.90
21712;DHT22;11017;53.552;9.910;2023-03-01T03:25:05;3.20;99.90
21712;DHT22;11017;53.552;9.910;2023-03-01T03:27:36;3.20;99.90
21712;DHT22;11017;53.552;9.910;2023-03-01T03:30:04;3.00;99.90
21712;DHT22;11017;53.552;9.910;2023-03-01T03:32:36;3.00;99.90
21712;DHT22;11017;53.552;9.910;2023-03-01T03:35:03;3.20;99.90
21712;DHT22;11017;53.552;9.910;2023-03-01T03:37:35;3.40;99.90
21712;DHT22;11017;53.552;9.910;2023-03-01T03:40:20;3.50;99.90
21712;DHT22;11017;53.552;9.910;2023-03-01T03:42:47;3.60;99.90
21712;DHT22;11017;53.552;9.910;2023-03-01T03:45:14;3.60;99.90
21712;DHT22;11017;53.552;9.910;2023-03-01T03:47:43;3.70;99.90
21712;DHT22;11017;53.552;9.910;2023-03-01T03:50:11;3.70;99.90
21712;DHT22;11017;53.552;9.910;2023-03-01T03:52:38;3.60;99.90
21712;DHT22;11017;53.552;9.910;2023-03-01T03:55:06;3.70;99.90
21712;DHT22;11017;53.552;9.910;2023-03-01T03:57:37;3.70;99.90
21712;DHT22;11017;53.552;9.910;2023-03-01T04:00:07;3.70;99.90
21712;DHT22;11017;53.552;9.910;2023-03-01T04:02:38;3.70;99.90
21712;DHT22;11017;53.552;9.910;2023-03-01T04:05:08;3.70;99.90
21712;DHT22;11017;53.552;9.910;2023-03-01T04:07:35;3.50;99.90
21712;DHT22;11017;53.552;9.910;2023-03-01T04:10:03;3.60;99.90
21712;DHT22;11017;53.552;9.910;2023-03-01T04:12:35;3.80;99.90
21712;DHT22;11017;53.552;9.910;2023-03-01T04:15:02;3.70;99.90
21712;DHT22;11017;53.552;9.910;2023-03-01T04:17:38;3.40;99.90
21712;DHT22;11017;53.552;9.910;2023-03-01T04:20:07;3.50;99.90
21712;DHT22;11017;53.552;9.910;2023-03-01T04:22:36;3.60;99.90
21712;DHT22;11017;53.552;9.910;2023-03-01T04:25:04;3.60;99.90
21712;DHT22;11017;53.552;9.910;2023-03-01T04:27:32;3.40;99.90
21712;DHT22;11017;53.552;9.910;2023-03-01T04:29:59;3.50;99.90
21712;DHT22;11017;53.552;9.910;2023-03-01T04:32:26;3.80;99.90
21712;DHT22;11017;53.552;9.910;2023-03-01T04:34:52;3.70;99.90
21712;DHT22;11017;53.552;9.910;2023-03-01T04:37:21;3.80;99.90
21712;DHT22;11017;53.552;9.910;2023-03-01T04:39:48;4.10;99.90
21712;DHT22;11017;53.552;9.910;2023-03-01T04:42:15;4.10;99.90
21712;DHT22;11017;53.552;9.910;2023-03-01T04:44:42;3.80;99.90
21712;DHT22;11017;53.552;9.910;2023-03-01T04:47:09;3.60;99.90
21712;DHT22;11017;53.552;9.910;2023-03-01T04:49:36;3.50;99.90
21712;DHT22;11017;53.552;9.910;2023-03-01T04:52:04;3.40;99.90
21712;DHT22;11017;53.552;9.910;2023-03-01T04:54:33;3.50;99.90
21712;DHT22;11017;53.552;9.910;2023-03-01T04:57:01;3.30;99.90
21712;DHT22;11017;53.552;9.910;2023-03-01T04:59:29;3.30;99.90
21712;DHT22;11017;53.552;9.910;2023-03-01T05:01:56;3.40;99.90
21712;DHT22;11017;53.552;9.910;2023-03-01T05:04:25;3.70;99.90
21712;DHT22;11017;53.552;9.910;2023-03-01T05:06:52;4.00;99.90
21712;DHT22;11017;53.552;9.910;2023-03-01T05:09:20;3.70;99.90
21712;DHT22;11017;53.552;9.910;2023-03-01T05:11:48;3.60;99.90
21712;DHT22;11017;53.552;9.910;2023-03-01T05:14:17;3.60;99.90
21712;DHT22;11017;53.552;9.910;2023-03-01T05:16:44;3.90;99.90
21712;DHT22;11017;53.552;9.910;2023-03-01T05:19:11;4.10;99.90
21712;DHT22;11017;53.552;9.910;2023-03-01T05:21:41;4.00;99.90
21712;DHT22;11017;53.552;9.910;2023-03-01T05:24:21;3.50;99.90
21712;DHT22;11017;53.552;9.910;2023-03-01T05:26:50;3.40;99.90
21712;DHT22;11017;53.552;9.910;2023-03-01T05:29:18;3.60;99.90
21712;DHT22;11017;53.552;9.910;2023-03-01T05:31:51;3.50;99.90
21712;DHT22;11017;53.552;9.910;2023-03-01T05:34:18;3.20;99.90
21712;DHT22;11017;53.552;9.910;2023-03-01T05:36:48;3.10;99.90
21712;DHT22;11017;53.552;9.910;2023-03-01T05:39:19;3.50;99.90
21712;DHT22;11017;53.552;9.910;2023-03-01T05:41:46;3.70;99.90
21712;DHT22;11017;53.552;9.910;2023-03-01T05:44:15;3.90;99.90
21712;DHT22;11017;53.552;9.910;2023-03-01T05:46:42;4.10;99.90
21712;DHT22;11017;53.552;9.910;2023-03-01T05:49:09;4.10;99.90
21712;DHT22;11017;53.552;9.910;2023-03-01T05:51:35;3.70;99.90
21712;DHT22;11017;53.552;9.910;2023-03-01T05:54:02;3.50;99.90
21712;DHT22;11017;53.552;9.910;2023-03-01T05:56:32;3.80;99.90
21712;DHT22;11017;53.552;9.910;2023-03-01T05:59:00;3.70;99.90
21712;DHT22;11017;53.552;9.910;2023-03-01T06:01:28;3.50;99.90
21712;DHT22;11017;53.552;9.910;2023-03-01T06:03:55;3.70;99.90
21712;DHT22;11017;53.552;9.910;2023-03-01T06:06:22;3.80;99.90
21712;DHT22;11017;53.552;9.910;2023-03-01T06:08:49;4.00;99.90
21712;DHT22;11017;53.552;9.910;2023-03-01T06:11:16;4.20;99.90
21712;DHT22;11017;53.552;9.910;2023-03-01T06:13:44;4.30;99.90
21712;DHT22;11017;53.552;9.910;2023-03-01T06:16:11;3.80;99.90
21712;DHT22;11017;53.552;9.910;2023-03-01T06:18:40;4.00;99.90
21712;DHT22;11017;53.552;9.910;2023-03-01T06:21:08;4.20;99.90
21712;DHT22;11017;53.552;9.910;2023-03-01T06:23:35;4.30;99.90
21712;DHT22;11017;53.552;9.910;2023-03-01T06:26:05;4.30;99.90
21712;DHT22;11017;53.552;9.910;2023-03-01T06:28:32;3.90;99.90
21712;DHT22;11017;53.552;9.910;2023-03-01T06:30:59;3.60;99.90
21712;DHT22;11017;53.552;9.910;2023-03-01T06:33:26;3.80;99.90
21712;DHT22;11017;53.552;9.910;2023-03-01T06:35:55;4.00;99.90
21712;DHT22;11017;53.552;9.910;2023-03-01T06:38:22;3.80;99.90
21712;DHT22;11017;53.552;9.910;2023-03-01T06:40:54;3.60;99.90
21712;DHT22;11017;53.552;9.910;2023-03-01T06:43:22;3.50;99.90
21712;DHT22;11017;53.552;9.910;2023-03-01T06:45:49;3.90;99.90
21712;DHT22;11017;53.552;9.910;2023-03-01T06:48:16;3.90;99.90
21712;DHT22;11017;53.552;9.910;2023-03-01T06:50:43;4.00;99.90
21712;DHT22;11017;53.552;9.910;2023-03-01T06:53:11;4.20;99.90
21712;DHT22;11017;53.552;9.910;2023-03-01T06:55:38;4.30;99.90
21712;DHT22;11017;53.552;9.910;2023-03-01T06:58:05;4.20;99.90
21712;DHT22;11017;53.552;9.910;2023-03-01T07:00:32;3.90;99.90
21712;DHT22;11017;53.552;9.910;2023-03-01T07:03:00;3.80;99.90
21712;DHT22;11017;53.552;9.910;2023-03-01T07:05:28;4.00;99.90
21712;DHT22;11017;53.552;9.910;2023-03-01T07:07:55;4.10;99.90
21712;DHT22;11017;53.552;9.910;2023-03-01T07:10:23;3.80;99.90
21712;DHT22;11017;53.552;9.910;2023-03-01T07:12:53;4.00;99.90
21712;DHT22;11017;53.552;9.910;2023-03-01T07:15:20;4.30;99.90
21712;DHT22;11017;53.552;9.910;2023-03-01T07:17:47;4.30;99.90
21712;DHT22;11017;53.552;9.910;2023-03-01T07:20:16;4.50;99.90
21712;DHT22;11017;53.552;9.910;2023-03-01T07:22:43;4.50;99.90
21712;DHT22;11017;53.552;9.910;2023-03-01T07:25:11;4.60;99.90
21712;DHT22;11017;53.552;9.910;2023-03-01T07:27:39;4.60;99.90
21712;DHT22;11017;53.552;9.910;2023-03-01T07:30:07;4.50;99.90
21712;DHT22;11017;53.552;9.910;2023-03-01T07:32:34;4.50;99.90
21712;DHT22;11017;53.552;9.910;2023-03-01T07:35:01;4.80;99.90
21712;DHT22;11017;53.552;9.910;2023-03-01T07:37:28;5.00;99.90
21712;DHT22;11017;53.552;9.910;2023-03-01T07:39:55;5.10;99.90
21712;DHT22;11017;53.552;9.910;2023-03-01T07:42:22;4.80;99.90
21712;DHT22;11017;53.552;9.910;2023-03-01T07:44:50;4.60;99.90
21712;DHT22;11017;53.552;9.910;2023-03-01T07:47:17;5.00;99.90
21712;DHT22;11017;53.552;9.910;2023-03-01T07:49:44;5.20;99.90
21712;DHT22;11017;53.552;9.910;2023-03-01T07:52:11;5.00;99.90
21712;DHT22;11017;53.552;9.910;2023-03-01T07:54:38;5.40;99.90
21712;DHT22;11017;53.552;9.910;2023-03-01T07:57:05;5.70;99.90
21712;DHT22;11017;53.552;9.910;2023-03-01T07:59:32;5.50;99.90
21712;DHT22;11017;53.552;9.910;2023-03-01T08:02:00;5.80;99.90
21712;DHT22;11017;53.552;9.910;2023-03-01T08:04:28;5.70;99.90
21712;DHT22;11017;53.552;9.910;2023-03-01T08:06:55;5.70;99.90
21712;DHT22;11017;53.552;9.910;2023-03-01T08:09:22;6.00;99.90
21712;DHT22;11017;53.552;9.910;2023-03-01T08:11:49;6.20;99.90
21712;DHT22;11017;53.552;9.910;2023-03-01T08:14:16;6.20;99.90
21712;DHT22;11017;53.552;9.910;2023-03-01T08:16:43;6.00;99.90
21712;DHT22;11017;53.552;9.910;2023-03-01T08:19:12;5.70;99.90
21712;DHT22;11017;53.552;9.910;2023-03-01T08:21:39;5.70;99.90
21712;DHT22;11017;53.552;9.910;2023-03-01T08:24:07;5.60;99.90
21712;DHT22;11017;53.552;9.910;2023-03-01T08:26:36;5.80;99.90
21712;DHT22;11017;53.552;9.910;2023-03-01T08:29:03;5.50;99.90
21712;DHT22;11017;53.552;9.910;2023-03-01T08:31:33;5.30;99.90
21712;DHT22;11017;53.552;9.910;2023-03-01T08:34:02;5.30;99.90
21712;DHT22;11017;53.552;9.910;2023-03-01T08:36:34;5.30;99.90
21712;DHT22;11017;53.552;9.910;2023-03-01T08:39:02;5.50;99.90
21712;DHT22;11017;53.552;9.910;2023-03-01T08:41:29;5.60;99.90
21712;DHT22;11017;53.552;9.910;2023-03-01T08:43:56;5.80;99.90
21712;DHT22;11017;53.552;9.910;2023-03-01T08:46:25;5.80;99.90
21712;DHT22;11017;53.552;9.910;2023-03-01T08:48:52;5.70;99.90
21712;DHT22;11017;53.552;9.910;2023-03-01T08:51:20;6.00;99.90
21712;DHT22;11017;53.552;9.910;2023-03-01T08:53:49;6.70;99.90
21712;DHT22;11017;53.552;9.910;2023-03-01T08:56:16;8.30;99.90
21712;DHT22;11017;53.552;9.910;2023-03-01T08:58:44;8.70;99.90
21712;DHT22;11017;53.552;9.910;2023-03-01T09:01:13;8.40;99.90
21712;DHT22;11017;53.552;9.910;2023-03-01T09:03:40;9.70;99.90
21712;DHT22;11017;53.552;9.910;2023-03-01T09:06:08;9.70;99.90
21712;DHT22;11017;53.552;9.910;2023-03-01T09:08:35;9.80;99.90
21712;DHT22;11017;53.552;9.910;2023-03-01T09:11:05;8.80;99.90
21712;DHT22;11017;53.552;9.910;2023-03-01T09:13:33;8.60;99.90
21712;DHT22;11017;53.552;9.910;2023-03-01T09:16:01;8.60;99.90
21712;DHT22;11017;53.552;9.910;2023-03-01T09:18:28;8.50;99.90
21712;DHT22;11017;53.552;9.910;2023-03-01T09:21:01;8.60;99.90
21712;DHT22;11017;53.552;9.910;2023-03-01T09:23:28;8.60;99.90
21712;DHT22;11017;53.552;9.910;2023-03-01T09:25:55;8.70;99.90
21712;DHT22;11017;53.552;9.910;2023-03-01T09:28:23;8.50;99.90
21712;DHT22;11017;53.552;9.910;2023-03-01T09:30:50;8.50;99.90
21712;DHT22;11017;53.552;9.910;2023-03-01T09:33:19;8.50;99.90
21712;DHT22;11017;53.552;9.910;2023-03-01T09:35:46;8.20;99.90
21712;DHT22;11017;53.552;9.910;2023-03-01T09:38:14;8.50;99.90
21712;DHT22;11017;53.552;9.910;2023-03-01T09:40:43;9.00;99.90
21712;DHT22;11017;53.552;9.910;2023-03-01T09:43:18;9.40;99.90
21712;DHT22;11017;53.552;9.910;2023-03-01T09:45:51;9.30;99.90
21712;DHT22;11017;53.552;9.910;2023-03-01T09:48:22;9.10;99.90
21712;DHT22;11017;53.552;9.910;2023-03-01T09:50:52;9.40;99.90
21712;DHT22;11017;53.552;9.910;2023-03-01T09:53:21;10.30;99.90
21712;DHT22;11017;53.552;9.910;2023-03-01T09:55:51;11.50;99.90
21712;DHT22;11017;53.552;9.910;2023-03-01T09:58:31;11.60;99.90
21712;DHT22;11017;53.552;9.910;2023-03-01T10:01:23;12.40;99.90
21712;DHT22;11017;53.552;9.910;2023-03-01T10:04:04;13.40;99.90
21712;DHT22;11017;53.552;9.910;2023-03-01T10:06:32;13.80;99.90
21712;DHT22;11017;53.552;9.910;2023-03-01T10:09:02;14.50;99.90
21712;DHT22;11017;53.552;9.910;2023-03-01T10:11:35;14.10;99.90
21712;DHT22;11017;53.552;9.910;2023-03-01T10:14:05;15.30;99.90
21712;DHT22;11017;53.552;9.910;2023-03-01T10:16:40;15.90;99.90
21712;DHT22;11017;53.552;9.910;2023-03-01T10:19:12;16.10;97.90
21712;DHT22;11017;53.552;9.910;2023-03-01T10:21:45;15.10;98.00
21712;DHT22;11017;53.552;9.910;2023-03-01T10:24:14;14.60;98.50
21712;DHT22;11017;53.552;9.910;2023-03-01T10:26:48;15.00;98.50
21712;DHT22;11017;53.552;9.910;2023-03-01T10:29:20;15.40;98.40
21712;DHT22;11017;53.552;9.910;2023-03-01T10:31:53;16.20;97.00
21712;DHT22;11017;53.552;9.910;2023-03-01T10:34:25;15.90;96.40
21712;DHT22;11017;53.552;9.910;2023-03-01T10:36:56;15.90;96.10
21712;DHT22;11017;53.552;9.910;2023-03-01T10:39:25;16.80;96.20
21712;DHT22;11017;53.552;9.910;2023-03-01T10:41:56;16.80;95.60
21712;DHT22;11017;53.552;9.910;2023-03-01T10:44:38;17.20;94.70
21712;DHT22;11017;53.552;9.910;2023-03-01T10:47:18;16.40;95.00
21712;DHT22;11017;53.552;9.910;2023-03-01T10:49:58;15.70;94.20
21712;DHT22;11017;53.552;9.910;2023-03-01T10:52:29;15.40;95.40
21712;DHT22;11017;53.552;9.910;2023-03-01T10:54:58;15.90;94.70
21712;DHT22;11017;53.552;9.910;2023-03-01T10:57:35;15.10;94.50
21712;DHT22;11017;53.552;9.910;2023-03-01T11:00:19;14.70;95.00
21712;DHT22;11017;53.552;9.910;2023-03-01T11:03:00;15.00;95.90
21712;DHT22;11017;53.552;9.910;2023-03-01T11:05:27;14.60;95.80
21712;DHT22;11017;53.552;9.910;2023-03-01T11:07:57;15.00;95.70
21712;DHT22;11017;53.552;9.910;2023-03-01T11:10:26;15.40;95.50
21712;DHT22;11017;53.552;9.910;2023-03-01T11:13:06;15.90;95.00
21712;DHT22;11017;53.552;9.910;2023-03-01T11:15:34;16.20;94.80
21712;DHT22;11017;53.552;9.910;2023-03-01T11:18:03;16.30;94.40
21712;DHT22;11017;53.552;9.910;2023-03-01T11:20:32;16.80;94.30
21712;DHT22;11017;53.552;9.910;2023-03-01T11:23:04;16.80;94.10
21712;DHT22;11017;53.552;9.910;2023-03-01T11:25:35;16.90;94.30
21712;DHT22;11017;53.552;9.910;2023-03-01T11:28:05;17.40;94.20
21712;DHT22;11017;53.552;9.910;2023-03-01T11:30:35;17.50;93.70
21712;DHT22;11017;53.552;9.910;2023-03-01T11:33:13;17.70;92.50
21712;DHT22;11017;53.552;9.910;2023-03-01T11:35:49;17.60;93.10
21712;DHT22;11017;53.552;9.910;2023-03-01T11:38:22;18.30;92.70
21712;DHT22;11017;53.552;9.910;2023-03-01T11:40:54;19.10;91.60
21712;DHT22;11017;53.552;9.910;2023-03-01T11:43:31;19.20;90.80
21712;DHT22;11017;53.552;9.910;2023-03-01T11:49:32;19.80;88.50
21712;DHT22;11017;53.552;9.910;2023-03-01T11:52:09;19.60;87.20
21712;DHT22;11017;53.552;9.910;2023-03-01T11:54:50;20.70;86.00
21712;DHT22;11017;53.552;9.910;2023-03-01T11:57:33;20.70;85.00
21712;DHT22;11017;53.552;9.910;2023-03-01T12:00:15;21.60;82.50
21712;DHT22;11017;53.552;9.910;2023-03-01T12:03:16;22.10;79.90
21712;DHT22;11017;53.552;9.910;2023-03-01T12:06:23;21.50;80.50
21712;DHT22;11017;53.552;9.910;2023-03-01T12:09:07;20.80;80.50
21712;DHT22;11017;53.552;9.910;2023-03-01T12:11:45;19.40;82.00
21712;DHT22;11017;53.552;9.910;2023-03-01T12:14:42;18.90;82.10
21712;DHT22;11017;53.552;9.910;2023-03-01T12:17:23;17.80;84.20
21712;DHT22;11017;53.552;9.910;2023-03-01T12:22:59;20.30;82.10
21712;DHT22;11017;53.552;9.910;2023-03-01T12:25:35;20.70;80.70
21712;DHT22;11017;53.552;9.910;2023-03-01T12:28:18;21.70;79.70
21712;DHT22;11017;53.552;9.910;2023-03-01T12:30:59;21.30;77.90
21712;DHT22;11017;53.552;9.910;2023-03-01T12:33:38;22.10;77.50
21712;DHT22;11017;53.552;9.910;2023-03-01T12:39:32;21.60;76.00
21712;DHT22;11017;53.552;9.910;2023-03-01T12:42:07;22.30;75.70
21712;DHT22;11017;53.552;9.910;2023-03-01T12:44:48;22.90;74.10
21712;DHT22;11017;53.552;9.910;2023-03-01T12:47:30;21.90;74.60
21712;DHT22;11017;53.552;9.910;2023-03-01T12:50:10;21.60;74.70
21712;DHT22;11017;53.552;9.910;2023-03-01T12:52:42;22.20;75.10
21712;DHT22;11017;53.552;9.910;2023-03-01T12:55:24;22.50;74.40
21712;DHT22;11017;53.552;9.910;2023-03-01T12:58:00;21.90;74.10
21712;DHT22;11017;53.552;9.910;2023-03-01T13:00:31;22.30;73.30
21712;DHT22;11017;53.552;9.910;2023-03-01T13:03:09;22.80;73.50
21712;DHT22;11017;53.552;9.910;2023-03-01T13:05:43;22.00;72.30
21712;DHT22;11017;53.552;9.910;2023-03-01T13:08:19;21.60;73.60
21712;DHT22;11017;53.552;9.910;2023-03-01T13:10:49;21.80;74.40
21712;DHT22;11017;53.552;9.910;2023-03-01T13:13:22;22.20;73.80
21712;DHT22;11017;53.552;9.910;2023-03-01T13:15:49;22.70;72.00
21712;DHT22;11017;53.552;9.910;2023-03-01T13:18:31;21.50;72.50
21712;DHT22;11017;53.552;9.910;2023-03-01T13:21:00;21.80;72.20
21712;DHT22;11017;53.552;9.910;2023-03-01T13:23:30;21.60;73.10
21712;DHT22;11017;53.552;9.910;2023-03-01T13:26:07;21.30;73.40
21712;DHT22;11017;53.552;9.910;2023-03-01T13:31:58;21.10;72.90
21712;DHT22;11017;53.552;9.910;2023-03-01T13:34:53;20.50;73.40
21712;DHT22;11017;53.552;9.910;2023-03-01T13:37:26;20.20;73.60
21712;DHT22;11017;53.552;9.910;2023-03-01T13:39:56;20.80;73.60
21712;DHT22;11017;53.552;9.910;2023-03-01T13:42:33;21.50;73.40
21712;DHT22;11017;53.552;9.910;2023-03-01T13:45:03;22.20;72.20
21712;DHT22;11017;53.552;9.910;2023-03-01T13:47:30;21.30;72.40
21712;DHT22;11017;53.552;9.910;2023-03-01T13:50:01;20.50;73.30
21712;DHT22;11017;53.552;9.910;2023-03-01T13:52:36;19.50;73.90
21712;DHT22;11017;53.552;9.910;2023-03-01T13:55:15;19.10;74.30
21712;DHT22;11017;53.552;9.910;2023-03-01T13:57:47;19.20;74.20
21712;DHT22;11017;53.552;9.910;2023-03-01T14:00:31;19.30;74.50
21712;DHT22;11017;53.552;9.910;2023-03-01T14:03:09;19.00;75.30
21712;DHT22;11017;53.552;9.910;2023-03-01T14:05:37;19.20;75.10
21712;DHT22;11017;53.552;9.910;2023-03-01T14:08:04;19.20;75.10
21712;DHT22;11017;53.552;9.910;2023-03-01T14:10:36;19.10;75.20
21712;DHT22;11017;53.552;9.910;2023-03-01T14:13:20;19.30;75.00
21712;DHT22;11017;53.552;9.910;2023-03-01T14:16:02;18.80;76.00
21712;DHT22;11017;53.552;9.910;2023-03-01T14:18:35;18.50;76.70
21712;DHT22;11017;53.552;9.910;2023-03-01T14:21:08;18.10;77.10
21712;DHT22;11017;53.552;9.910;2023-03-01T14:23:38;17.50;78.70
21712;DHT22;11017;53.552;9.910;2023-03-01T14:26:08;17.00;79.70
21712;DHT22;11017;53.552;9.910;2023-03-01T14:28:39;16.10;80.10
21712;DHT22;11017;53.552;9.910;2023-03-01T14:31:31;16.20;80.60
21712;DHT22;11017;53.552;9.910;2023-03-01T14:33:58;16.70;79.90
21712;DHT22;11017;53.552;9.910;2023-03-01T14:36:26;16.00;80.60
21712;DHT22;11017;53.552;9.910;2023-03-01T14:38:53;16.30;81.30
21712;DHT22;11017;53.552;9.910;2023-03-01T14:41:22;15.90;80.70
21712;DHT22;11017;53.552;9.910;2023-03-01T14:43:55;15.60;82.60
21712;DHT22;11017;53.552;9.910;2023-03-01T14:46:26;16.30;82.60
21712;DHT22;11017;53.552;9.910;2023-03-01T14:48:57;17.40;80.80
21712;DHT22;11017;53.552;9.910;2023-03-01T14:51:26;17.20;79.10
21712;DHT22;11017;53.552;9.910;2023-03-01T14:53:53;15.80;81.70
21712;DHT22;11017;53.552;9.910;2023-03-01T14:56:20;15.50;83.00
21712;DHT22;11017;53.552;9.910;2023-03-01T14:58:53;16.00;82.60
21712;DHT22;11017;53.552;9.910;2023-03-01T15:01:20;16.30;82.60
21712;DHT22;11017;53.552;9.910;2023-03-01T15:03:49;16.60;81.10
21712;DHT22;11017;53.552;9.910;2023-03-01T15:06:19;16.60;81.20
21712;DHT22;11017;53.552;9.910;2023-03-01T15:08:49;17.40;80.60
21712;DHT22;11017;53.552;9.910;2023-03-01T15:11:20;17.70;80.10
21712;DHT22;11017;53.552;9.910;2023-03-01T15:13:48;16.60;81.60
21712;DHT22;11017;53.552;9.910;2023-03-01T15:16:18;16.40;82.70
21712;DHT22;11017;53.552;9.910;2023-03-01T15:18:48;17.10;81.50
21712;DHT22;11017;53.552;9.910;2023-03-01T15:21:18;18.10;79.80
21712;DHT22;11017;53.552;9.910;2023-03-01T15:23:49;18.50;79.10
21712;DHT22;11017;53.552;9.910;2023-03-01T15:26:23;19.10;78.10
21712;DHT22;11017;53.552;9.910;2023-03-01T15:28:52;19.20;76.30
21712;DHT22;11017;53.552;9.910;2023-03-01T15:31:26;19.20;76.80
21712;DHT22;11017;53.552;9.910;2023-03-01T15:34:09;19.80;75.50
21712;DHT22;11017;53.552;9.910;2023-03-01T15:36:41;20.30;74.30
21712;DHT22;11017;53.552;9.910;2023-03-01T15:39:29;20.50;73.40
21712;DHT22;11017;53.552;9.910;2023-03-01T15:41:58;20.60;73.50
21712;DHT22;11017;53.552;9.910;2023-03-01T15:44:28;20.70;72.90
21712;DHT22;11017;53.552;9.910;2023-03-01T15:46:57;20.50;73.60
21712;DHT22;11017;53.552;9.910;2023-03-01T15:49:32;20.20;73.10
21712;DHT22;11017;53.552;9.910;2023-03-01T15:51:59;20.10;73.20
21712;DHT22;11017;53.552;9.910;2023-03-01T15:54:27;18.60;75.00
21712;DHT22;11017;53.552;9.910;2023-03-01T15:56:54;17.90;76.30
21712;DHT22;11017;53.552;9.910;2023-03-01T15:59:22;18.10;75.90
21712;DHT22;11017;53.552;9.910;2023-03-01T16:01:49;17.80;76.00
21712;DHT22;11017;53.552;9.910;2023-03-01T16:04:19;17.70;76.40
21712;DHT22;11017;53.552;9.910;2023-03-01T16:06:50;17.30;76.80
21712;DHT22;11017;53.552;9.910;2023-03-01T16:09:20;16.80;77.90
21712;DHT22;11017;53.552;9.910;2023-03-01T16:11:48;15.60;79.80
21712;DHT22;11017;53.552;9.910;2023-03-01T16:14:15;14.30;82.90